createdAt,value
2018-03-17T00:01:10.730Z,37.10
2018-03-17T00:03:38.277Z,30.90
2018-03-17T00:06:06.013Z,35.07
2018-03-17T00:08:33.642Z,38.83
2018-03-17T00:11:01.152Z,33.37
2018-03-17T00:13:28.773Z,34.53
2018-03-17T00:15:56.463Z,30.47
2018-03-17T00:18:24.044Z,36.80
2018-03-17T00:20:51.725Z,38.37
2018-03-17T00:23:19.326Z,32.90
2018-03-17T00:25:46.889Z,36.38
2018-03-17T00:28:14.481Z,32.43
2018-03-17T00:30:42.129Z,33.43
2018-03-17T00:33:09.735Z,35.93
2018-03-17T00:35:37.298Z,38.37
2018-03-17T00:38:04.906Z,36.63
2018-03-17T00:40:32.475Z,36.50
2018-03-17T00:43:00.273Z,42.37
2018-03-17T00:45:27.813Z,37.93
2018-03-17T00:47:55.415Z,31.83
2018-03-17T00:50:23.441Z,36.65
2018-03-17T00:52:51.008Z,40.17
2018-03-17T00:55:18.561Z,39.23
2018-03-17T00:57:46.123Z,39.47
2018-03-17T01:00:13.697Z,36.03
2018-03-17T01:02:41.274Z,39.57
2018-03-17T01:05:08.829Z,42.37
2018-03-17T01:07:36.408Z,37.30
2018-03-17T01:10:04.353Z,37.63
2018-03-17T01:12:31.889Z,37.25
2018-03-17T01:14:59.494Z,34.80
2018-03-17T01:17:27.441Z,38.97
2018-03-17T01:19:55.017Z,41.70
2018-03-17T01:22:23.006Z,33.40
2018-03-17T01:24:50.568Z,37.40
2018-03-17T01:27:18.529Z,32.10
2018-03-17T01:29:46.521Z,35.10
2018-03-17T01:32:14.091Z,33.63
2018-03-17T01:34:41.662Z,33.43
2018-03-17T01:37:09.205Z,36.93
2018-03-17T01:39:37.741Z,35.83
2018-03-17T01:42:05.297Z,33.17
2018-03-17T01:44:32.900Z,31.27
2018-03-17T01:47:00.474Z,33.83
2018-03-17T01:49:28.072Z,39.87
2018-03-17T01:51:55.681Z,38.83
2018-03-17T01:54:31.143Z,33.17
2018-03-17T01:56:58.817Z,31.35
2018-03-17T01:59:26.409Z,38.67
2018-03-17T02:01:53.969Z,36.43
2018-03-17T02:04:21.957Z,35.50
2018-03-17T02:06:49.884Z,35.67
2018-03-17T02:09:17.454Z,31.15
2018-03-17T02:11:45.040Z,38.57
2018-03-17T02:14:12.978Z,37.93
2018-03-17T02:16:40.520Z,38.87
2018-03-17T02:19:08.103Z,37.67
2018-03-17T02:21:35.706Z,37.92
2018-03-17T02:24:03.257Z,35.57
2018-03-17T02:26:31.220Z,34.10
2018-03-17T02:28:59.160Z,33.97
2018-03-17T02:31:26.874Z,35.17
2018-03-17T02:33:54.452Z,33.90
2018-03-17T02:36:22.018Z,32.50
2018-03-17T02:38:49.575Z,34.50
2018-03-17T02:41:18.395Z,36.50
2018-03-17T02:43:46.007Z,37.73
2018-03-17T02:46:13.537Z,36.17
2018-03-17T02:48:41.501Z,36.37
2018-03-17T02:51:09.470Z,35.20
2018-03-17T02:53:37.458Z,38.23
2018-03-17T02:56:05.044Z,38.23
2018-03-17T02:58:32.608Z,34.20
2018-03-17T03:01:00.160Z,34.03
2018-03-17T03:03:27.725Z,41.53
2018-03-17T03:05:55.302Z,34.28
2018-03-17T03:08:22.861Z,42.43
2018-03-17T03:10:50.431Z,40.73
2018-03-17T03:13:18.039Z,42.23
2018-03-17T03:15:46.002Z,34.07
2018-03-17T03:18:13.695Z,43.20
2018-03-17T03:20:41.254Z,41.17
2018-03-17T03:23:08.811Z,40.47
2018-03-17T03:25:36.440Z,42.77
2018-03-17T03:28:04.013Z,38.37
2018-03-17T03:30:31.611Z,34.20
2018-03-17T03:32:59.153Z,35.07
2018-03-17T03:35:26.746Z,33.00
2018-03-17T03:37:54.381Z,38.70
2018-03-17T03:40:22.912Z,39.57
2018-03-17T03:42:50.447Z,39.30
2018-03-17T03:45:18.002Z,36.38
2018-03-17T03:47:45.596Z,35.33
2018-03-17T03:50:13.557Z,35.97
2018-03-17T03:52:41.155Z,30.93
2018-03-17T03:55:08.751Z,35.50
2018-03-17T03:57:36.322Z,38.13
2018-03-17T04:00:03.879Z,39.65
2018-03-17T04:02:32.121Z,35.77
2018-03-17T04:04:59.743Z,40.33
2018-03-17T04:07:27.300Z,45.13
2018-03-17T04:09:54.909Z,36.23
2018-03-17T04:12:22.454Z,42.10
2018-03-17T04:17:23.861Z,39.93
2018-03-17T04:19:51.413Z,41.63
2018-03-17T04:22:18.985Z,42.90
2018-03-17T04:24:46.539Z,41.67
2018-03-17T04:27:14.081Z,43.60
2018-03-17T04:29:41.674Z,44.07
2018-03-17T04:32:09.244Z,41.27
2018-03-17T04:34:37.195Z,50.28
2018-03-17T04:37:05.182Z,50.05
2018-03-17T04:39:33.204Z,41.72
2018-03-17T04:42:00.765Z,48.80
2018-03-17T04:44:28.346Z,46.80
2018-03-17T04:46:55.910Z,43.20
2018-03-17T04:49:23.512Z,41.70
2018-03-17T04:51:51.084Z,48.90
2018-03-17T04:54:18.670Z,47.67
2018-03-17T04:56:46.216Z,41.27
2018-03-17T04:59:13.816Z,45.80
2018-03-17T05:01:41.387Z,44.37
2018-03-17T05:04:09.484Z,39.88
2018-03-17T05:06:37.140Z,38.17
2018-03-17T05:09:05.094Z,44.90
2018-03-17T05:11:33.098Z,44.93
2018-03-17T05:14:00.671Z,40.78
2018-03-17T05:16:28.290Z,31.97
2018-03-17T05:18:56.265Z,36.73
2018-03-17T05:21:24.210Z,34.33
2018-03-17T05:23:51.797Z,37.67
2018-03-17T05:26:19.767Z,37.40
2018-03-17T05:28:47.345Z,37.47
2018-03-17T05:31:14.914Z,36.45
2018-03-17T05:33:42.505Z,33.80
2018-03-17T05:36:10.076Z,37.27
2018-03-17T05:38:37.655Z,31.65
2018-03-17T05:41:05.618Z,36.80
2018-03-17T05:43:33.160Z,36.57
2018-03-17T05:46:00.793Z,40.92
2018-03-17T05:48:28.407Z,35.80
2018-03-17T05:50:56.446Z,36.93
2018-03-17T05:53:24.282Z,35.78
2018-03-17T05:55:52.761Z,37.03
2018-03-17T05:58:20.324Z,33.30
2018-03-17T06:00:47.885Z,33.30
2018-03-17T06:03:15.545Z,32.00
2018-03-17T06:05:43.114Z,32.60
2018-03-17T06:08:10.688Z,36.40
2018-03-17T06:10:38.248Z,33.00
2018-03-17T06:13:05.885Z,31.92
2018-03-17T06:15:33.843Z,32.30
2018-03-17T06:18:01.418Z,36.40
2018-03-17T06:20:29.063Z,30.93
2018-03-17T06:22:56.648Z,33.70
2018-03-17T06:25:24.229Z,34.30
2018-03-17T06:27:52.913Z,32.63
2018-03-17T06:30:20.497Z,32.60
2018-03-17T06:32:48.453Z,37.33
2018-03-17T06:35:16.014Z,27.87
2018-03-17T06:37:43.603Z,36.07
2018-03-17T06:40:12.109Z,29.27
2018-03-17T06:42:39.740Z,33.50
2018-03-17T06:45:07.693Z,30.63
2018-03-17T06:47:35.250Z,28.53
2018-03-17T06:50:02.896Z,29.05
2018-03-17T06:52:30.462Z,35.60
2018-03-17T06:54:58.086Z,34.93
2018-03-17T06:57:25.639Z,33.27
2018-03-17T06:59:53.221Z,29.70
2018-03-17T07:02:20.761Z,29.90
2018-03-17T07:04:48.356Z,33.65
2018-03-17T07:07:16.928Z,26.83
2018-03-17T07:09:44.817Z,29.93
2018-03-17T07:12:12.394Z,32.53
2018-03-17T07:14:40.356Z,29.27
2018-03-17T07:17:07.921Z,27.17
2018-03-17T07:19:35.865Z,27.30
2018-03-17T07:22:03.428Z,26.77
2018-03-17T07:24:30.974Z,35.53
2018-03-17T07:26:58.544Z,27.35
2018-03-17T07:29:26.130Z,28.30
2018-03-17T07:31:53.677Z,27.63
2018-03-17T07:34:21.272Z,27.17
2018-03-17T07:36:48.834Z,28.20
2018-03-17T07:39:16.993Z,26.90
2018-03-17T07:41:44.952Z,24.30
2018-03-17T07:44:12.930Z,26.98
2018-03-17T07:46:40.472Z,24.63
2018-03-17T07:49:08.426Z,31.47
2018-03-17T07:51:36.025Z,27.45
2018-03-17T07:54:03.630Z,28.45
2018-03-17T07:56:31.221Z,25.30
2018-03-17T07:58:59.623Z,25.10
2018-03-17T08:01:27.614Z,31.23
2018-03-17T08:04:03.221Z,28.93
2018-03-17T08:06:30.825Z,28.80
2018-03-17T08:08:58.408Z,24.52
2018-03-17T08:11:25.997Z,26.73
2018-03-17T08:13:53.573Z,31.63
2018-03-17T08:16:21.219Z,30.30
2018-03-17T08:18:48.822Z,26.35
2018-03-17T08:21:17.070Z,27.13
2018-03-17T08:23:45.146Z,27.47
2018-03-17T08:26:13.098Z,28.23
2018-03-17T08:28:41.098Z,27.90
2018-03-17T08:31:08.666Z,28.67
2018-03-17T08:33:36.209Z,25.80
2018-03-17T08:36:03.787Z,27.10
2018-03-17T08:38:31.525Z,27.05
2018-03-17T08:40:59.919Z,25.35
2018-03-17T08:46:03.188Z,23.20
2018-03-17T08:48:30.801Z,26.17
2018-03-17T08:50:58.354Z,23.40
2018-03-17T08:53:25.977Z,23.65
2018-03-17T08:55:53.570Z,22.27
2018-03-17T08:58:21.370Z,20.23
2018-03-17T09:00:48.934Z,24.70
2018-03-17T09:03:16.474Z,27.23
2018-03-17T09:05:44.002Z,19.87
2018-03-17T09:08:12.686Z,23.90
2018-03-17T09:10:42.343Z,22.90
2018-03-17T09:13:09.969Z,22.27
2018-03-17T09:18:11.800Z,21.53
2018-03-17T09:20:39.431Z,20.73
2018-03-17T09:23:07.063Z,22.37
2018-03-17T09:25:35.033Z,22.43
2018-03-17T09:28:03.031Z,22.60
2018-03-17T09:30:30.626Z,22.50
2018-03-17T09:32:58.206Z,19.00
2018-03-17T09:35:25.765Z,22.07
2018-03-17T09:37:53.743Z,22.83
2018-03-17T09:40:21.706Z,20.87
2018-03-17T09:42:49.748Z,19.67
2018-03-17T09:45:17.337Z,18.33
2018-03-17T09:47:45.428Z,19.73
2018-03-17T09:50:13.130Z,20.73
2018-03-17T09:52:40.736Z,20.25
2018-03-17T09:55:08.672Z,22.17
2018-03-17T09:57:36.261Z,20.70
2018-03-17T10:00:04.228Z,20.65
2018-03-17T10:02:32.221Z,16.50
2018-03-17T10:04:59.796Z,18.80
2018-03-17T10:07:27.342Z,21.85
2018-03-17T10:09:55.051Z,19.33
2018-03-17T10:12:22.606Z,17.05
2018-03-17T10:14:50.183Z,19.92
2018-03-17T10:17:17.831Z,17.93
2018-03-17T10:19:45.410Z,18.00
2018-03-17T10:22:13.200Z,18.83
2018-03-17T10:24:41.814Z,19.83
2018-03-17T10:27:11.040Z,19.37
2018-03-17T10:29:38.678Z,18.98
2018-03-17T10:32:06.316Z,21.00
2018-03-17T10:34:33.935Z,19.67
2018-03-17T10:37:01.699Z,18.77
2018-03-17T10:39:29.308Z,18.27
2018-03-17T10:41:56.990Z,20.60
2018-03-17T10:44:24.580Z,19.08
2018-03-17T10:46:52.165Z,20.17
2018-03-17T10:49:20.170Z,17.83
2018-03-17T10:51:47.710Z,19.20
2018-03-17T10:54:15.305Z,19.73
2018-03-17T10:56:42.882Z,16.77
2018-03-17T10:59:10.449Z,17.62
2018-03-17T11:01:41.954Z,18.30
2018-03-17T11:04:09.880Z,17.90
2018-03-17T11:06:37.485Z,19.15
2018-03-17T11:09:05.036Z,18.50
2018-03-17T11:11:32.636Z,17.60
2018-03-17T11:14:00.578Z,19.57
2018-03-17T11:16:28.191Z,21.90
2018-03-17T11:18:55.736Z,18.27
2018-03-17T11:21:23.405Z,18.90
2018-03-17T11:23:50.978Z,21.87
2018-03-17T11:26:19.038Z,19.87
2018-03-17T11:28:46.603Z,19.30
2018-03-17T11:31:14.597Z,19.00
2018-03-17T11:33:42.573Z,19.12
2018-03-17T11:36:10.192Z,16.43
2018-03-17T11:38:37.771Z,20.02
2018-03-17T11:41:05.752Z,15.37
2018-03-17T11:43:33.745Z,18.80
2018-03-17T11:46:01.915Z,20.10
2018-03-17T11:48:29.465Z,20.37
2018-03-17T11:50:57.131Z,17.13
2018-03-17T11:53:24.711Z,18.77
2018-03-17T11:55:52.273Z,18.70
2018-03-17T11:58:19.875Z,18.63
2018-03-17T12:00:48.290Z,15.20
2018-03-17T12:03:17.124Z,19.93
2018-03-17T12:05:45.236Z,16.87
2018-03-17T12:08:13.218Z,17.87
2018-03-17T12:10:41.408Z,20.73
2018-03-17T12:13:08.938Z,19.87
2018-03-17T12:15:37.138Z,19.30
2018-03-17T12:18:04.918Z,18.50
2018-03-17T12:20:32.676Z,16.83
2018-03-17T12:23:00.269Z,23.92
2018-03-17T12:25:28.727Z,22.03
2018-03-17T12:27:56.327Z,22.87
2018-03-17T12:30:24.322Z,20.25
2018-03-17T12:32:51.885Z,20.67
2018-03-17T12:35:20.127Z,18.67
2018-03-17T12:37:48.985Z,17.37
2018-03-17T12:40:21.615Z,17.98
2018-03-17T12:42:44.551Z,19.93
2018-03-17T12:45:22.415Z,18.87
2018-03-17T12:47:50.066Z,20.30
2018-03-17T12:50:17.609Z,19.97
2018-03-17T12:52:45.199Z,20.80
2018-03-17T12:55:12.760Z,17.20
2018-03-17T12:57:40.343Z,18.42
2018-03-17T13:00:07.956Z,15.07
2018-03-17T13:02:35.512Z,19.30
2018-03-17T13:05:03.108Z,19.92
2018-03-17T13:07:30.883Z,15.93
2018-03-17T13:09:58.440Z,19.20
2018-03-17T13:12:26.011Z,21.90
2018-03-17T13:14:53.602Z,18.62
2018-03-17T13:17:21.186Z,23.00
2018-03-17T13:19:48.876Z,21.90
2018-03-17T13:22:16.478Z,20.60
2018-03-17T13:24:44.475Z,18.17
2018-03-17T13:27:23.797Z,19.53
2018-03-17T13:29:51.370Z,16.70
2018-03-17T13:32:30.865Z,22.13
2018-03-17T13:34:58.701Z,17.70
2018-03-17T13:37:39.072Z,19.02
2018-03-17T13:43:08.270Z,17.70
2018-03-17T13:45:35.887Z,21.23
2018-03-17T13:48:04.025Z,15.70
2018-03-17T13:50:31.644Z,24.58
2018-03-17T13:52:59.287Z,19.70
2018-03-17T13:55:27.236Z,22.05
2018-03-17T13:57:54.854Z,18.80
2018-03-17T14:00:22.511Z,18.63
2018-03-17T14:02:50.079Z,19.27
2018-03-17T14:05:17.681Z,20.73
2018-03-17T14:07:45.269Z,22.10
2018-03-17T14:10:12.824Z,19.63
2018-03-17T14:12:40.395Z,20.67
2018-03-17T14:15:07.928Z,21.10
2018-03-17T14:17:35.940Z,22.23
2018-03-17T14:20:03.515Z,19.55
2018-03-17T14:22:31.278Z,18.27
2018-03-17T14:24:58.867Z,20.70
2018-03-17T14:27:27.584Z,20.02
2018-03-17T14:29:55.287Z,18.70
2018-03-17T14:32:23.354Z,18.70
2018-03-17T14:34:50.950Z,16.33
2018-03-17T14:37:18.933Z,18.95
2018-03-17T14:39:46.533Z,19.67
2018-03-17T14:42:14.086Z,21.63
2018-03-17T14:44:41.720Z,22.80
2018-03-17T14:47:10.578Z,21.07
2018-03-17T14:49:38.169Z,17.77
2018-03-17T14:52:06.145Z,20.48
2018-03-17T14:54:33.724Z,20.57
2018-03-17T14:57:01.282Z,18.53
2018-03-17T14:59:28.838Z,18.48
2018-03-17T15:01:56.506Z,21.90
2018-03-17T15:04:24.107Z,21.20
2018-03-17T15:06:51.732Z,20.73
2018-03-17T15:09:19.353Z,24.37
2018-03-17T15:11:47.441Z,21.30
2018-03-17T15:14:15.398Z,22.83
2018-03-17T15:16:43.430Z,20.80
2018-03-17T15:19:11.364Z,22.80
2018-03-17T15:21:38.969Z,22.53
2018-03-17T15:24:07.106Z,21.40
2018-03-17T15:26:34.746Z,25.65
2018-03-17T15:29:02.758Z,24.70
2018-03-17T15:31:30.406Z,20.30
2018-03-17T15:33:58.108Z,22.40
2018-03-17T15:36:25.662Z,21.60
2018-03-17T15:38:53.338Z,21.83
2018-03-17T15:41:21.664Z,21.33
2018-03-17T15:43:49.253Z,19.93
2018-03-17T15:46:16.861Z,18.62
2018-03-17T15:48:44.797Z,22.92
2018-03-17T15:51:12.353Z,22.07
2018-03-17T15:53:39.950Z,26.90
2018-03-17T15:56:07.919Z,22.33
2018-03-17T15:58:35.825Z,22.17
2018-03-17T16:01:03.350Z,22.47
2018-03-17T16:03:30.914Z,17.30
2018-03-17T16:05:58.455Z,19.17
2018-03-17T16:08:26.739Z,21.00
2018-03-17T16:10:54.759Z,26.93
2018-03-17T16:13:22.815Z,22.80
2018-03-17T16:15:52.392Z,25.23
2018-03-17T16:18:20.691Z,20.00
2018-03-17T16:20:48.282Z,21.17
2018-03-17T16:23:15.914Z,20.10
2018-03-17T16:25:43.533Z,24.90
2018-03-17T16:28:11.105Z,19.80
2018-03-17T16:30:38.683Z,20.00
2018-03-17T16:33:06.408Z,19.70
2018-03-17T16:35:34.487Z,21.90
2018-03-17T16:38:03.587Z,21.90
2018-03-17T16:40:31.573Z,18.07
2018-03-17T16:42:59.189Z,22.20
2018-03-17T16:45:26.795Z,23.02
2018-03-17T16:47:58.433Z,16.67
2018-03-17T16:50:27.287Z,18.87
2018-03-17T16:52:55.362Z,23.12
2018-03-17T16:55:23.006Z,19.80
2018-03-17T16:57:51.223Z,21.60
2018-03-17T17:00:18.892Z,22.67
2018-03-17T17:02:47.777Z,21.20
2018-03-17T17:05:15.736Z,18.27
2018-03-17T17:07:43.370Z,22.67
2018-03-17T17:10:12.108Z,23.53
2018-03-17T17:12:44.741Z,21.83
2018-03-17T17:15:13.415Z,20.93
2018-03-17T17:17:54.369Z,20.52
2018-03-17T17:20:22.011Z,18.80
2018-03-17T17:22:59.857Z,18.63
2018-03-17T17:25:27.427Z,19.90
2018-03-17T17:27:54.990Z,26.73
2018-03-17T17:30:22.621Z,22.57
2018-03-17T17:32:50.210Z,20.80
2018-03-17T17:35:17.852Z,19.10
2018-03-17T17:37:45.455Z,19.90
2018-03-17T17:40:14.795Z,20.00
2018-03-17T17:42:42.366Z,22.40
2018-03-17T17:45:09.991Z,17.70
2018-03-17T17:47:37.554Z,18.80
2018-03-17T17:50:05.527Z,20.17
2018-03-17T17:52:33.949Z,18.23
2018-03-17T17:55:01.499Z,19.50
2018-03-17T17:57:29.068Z,22.70
2018-03-17T17:59:56.653Z,18.97
2018-03-17T18:02:24.256Z,17.83
2018-03-17T18:04:52.207Z,20.88
2018-03-17T18:07:20.142Z,18.95
2018-03-17T18:09:47.707Z,21.77
2018-03-17T18:12:15.283Z,22.63
2018-03-17T18:14:44.062Z,17.83
2018-03-17T18:17:13.164Z,29.60
2018-03-17T18:19:42.055Z,22.10
2018-03-17T18:22:10.918Z,17.60
2018-03-17T18:24:39.829Z,12.15
2018-03-17T18:27:09.460Z,10.03
